sensor_id;sensor_type;location;lat;lon;timestamp;temperature;humidity
25550;DHT22;13444;50.562;7.262;2023-04-20T00:01:10;6.60;99.90
25550;DHT22;13444;50.562;7.262;2023-04-20T00:03:36;6.60;99.90
25550;DHT22;13444;50.562;7.262;2023-04-20T00:06:02;6.60;99.90
25550;DHT22;13444;50.562;7.262;2023-04-20T00:08:28;6.60;99.90
25550;DHT22;13444;50.562;7.262;2023-04-20T00:10:53;6.60;99.90
25550;DHT22;13444;50.562;7.262;2023-04-20T00:13:19;6.60;99.90
25550;DHT22;13444;50.562;7.262;2023-04-20T00:15:44;6.60;99.90
25550;DHT22;13444;50.562;7.262;2023-04-20T00:18:10;6.60;99.90
25550;DHT22;13444;50.562;7.262;2023-04-20T00:20:36;6.60;99.90
25550;DHT22;13444;50.562;7.262;2023-04-20T00:23:02;6.70;99.90
25550;DHT22;13444;50.562;7.262;2023-04-20T00:25:27;6.70;99.90
25550;DHT22;13444;50.562;7.262;2023-04-20T00:27:55;6.70;99.90
25550;DHT22;13444;50.562;7.262;2023-04-20T00:30:20;6.70;99.90
25550;DHT22;13444;50.562;7.262;2023-04-20T00:32:46;6.80;99.90
25550;DHT22;13444;50.562;7.262;2023-04-20T00:35:11;6.80;99.90
25550;DHT22;13444;50.562;7.262;2023-04-20T00:37:37;6.80;99.90
25550;DHT22;13444;50.562;7.262;2023-04-20T00:40:03;6.80;99.90
25550;DHT22;13444;50.562;7.262;2023-04-20T00:42:29;6.80;99.90
25550;DHT22;13444;50.562;7.262;2023-04-20T00:44:54;6.80;99.90
25550;DHT22;13444;50.562;7.262;2023-04-20T00:47:20;6.80;99.90
25550;DHT22;13444;50.562;7.262;2023-04-20T00:49:45;6.80;99.90
25550;DHT22;13444;50.562;7.262;2023-04-20T00:52:11;6.70;99.90
25550;DHT22;13444;50.562;7.262;2023-04-20T00:54:38;6.80;99.90
25550;DHT22;13444;50.562;7.262;2023-04-20T00:57:04;6.80;99.90
25550;DHT22;13444;50.562;7.262;2023-04-20T00:59:29;6.80;99.90
25550;DHT22;13444;50.562;7.262;2023-04-20T01:01:55;6.80;99.90
25550;DHT22;13444;50.562;7.262;2023-04-20T01:04:21;6.70;99.90
25550;DHT22;13444;50.562;7.262;2023-04-20T01:06:47;6.70;99.90
25550;DHT22;13444;50.562;7.262;2023-04-20T01:09:12;6.70;99.90
25550;DHT22;13444;50.562;7.262;2023-04-20T01:11:38;6.70;99.90
25550;DHT22;13444;50.562;7.262;2023-04-20T01:14:04;6.70;99.90
25550;DHT22;13444;50.562;7.262;2023-04-20T01:16:30;6.60;99.90
25550;DHT22;13444;50.562;7.262;2023-04-20T01:18:56;6.60;99.90
25550;DHT22;13444;50.562;7.262;2023-04-20T01:21:22;6.60;99.90
25550;DHT22;13444;50.562;7.262;2023-04-20T01:23:48;6.60;99.90
25550;DHT22;13444;50.562;7.262;2023-04-20T01:26:15;6.60;99.90
25550;DHT22;13444;50.562;7.262;2023-04-20T01:28:42;6.60;99.90
25550;DHT22;13444;50.562;7.262;2023-04-20T01:31:08;6.70;99.90
25550;DHT22;13444;50.562;7.262;2023-04-20T01:33:35;6.70;99.90
25550;DHT22;13444;50.562;7.262;2023-04-20T01:36:01;6.60;99.90
25550;DHT22;13444;50.562;7.262;2023-04-20T01:38:27;6.70;99.90
25550;DHT22;13444;50.562;7.262;2023-04-20T01:40:53;6.70;99.90
25550;DHT22;13444;50.562;7.262;2023-04-20T01:43:19;6.70;99.90
25550;DHT22;13444;50.562;7.262;2023-04-20T01:45:45;6.70;99.90
25550;DHT22;13444;50.562;7.262;2023-04-20T01:48:10;6.70;99.90
25550;DHT22;13444;50.562;7.262;2023-04-20T01:50:36;6.70;99.90
25550;DHT22;13444;50.562;7.262;2023-04-20T01:53:02;6.70;99.90
25550;DHT22;13444;50.562;7.262;2023-04-20T01:55:27;6.70;99.90
25550;DHT22;13444;50.562;7.262;2023-04-20T01:57:53;6.70;99.90
25550;DHT22;13444;50.562;7.262;2023-04-20T02:00:18;6.70;99.90
25550;DHT22;13444;50.562;7.262;2023-04-20T02:02:44;6.70;99.90
25550;DHT22;13444;50.562;7.262;2023-04-20T02:05:09;6.70;99.90
25550;DHT22;13444;50.562;7.262;2023-04-20T02:07:35;6.60;99.90
25550;DHT22;13444;50.562;7.262;2023-04-20T02:10:01;6.60;99.90
25550;DHT22;13444;50.562;7.262;2023-04-20T02:12:27;6.60;99.90
25550;DHT22;13444;50.562;7.262;2023-04-20T02:14:52;6.60;99.90
25550;DHT22;13444;50.562;7.262;2023-04-20T02:17:18;6.60;99.90
25550;DHT22;13444;50.562;7.262;2023-04-20T02:19:44;6.60;99.90
25550;DHT22;13444;50.562;7.262;2023-04-20T02:22:09;6.70;99.90
25550;DHT22;13444;50.562;7.262;2023-04-20T02:24:35;6.70;99.90
25550;DHT22;13444;50.562;7.262;2023-04-20T02:27:00;6.80;99.90
25550;DHT22;13444;50.562;7.262;2023-04-20T02:29:26;6.80;99.90
25550;DHT22;13444;50.562;7.262;2023-04-20T02:31:52;6.70;99.90
25550;DHT22;13444;50.562;7.262;2023-04-20T02:34:17;6.70;99.90
25550;DHT22;13444;50.562;7.262;2023-04-20T02:36:43;6.70;99.90
25550;DHT22;13444;50.562;7.262;2023-04-20T02:39:09;6.60;99.90
25550;DHT22;13444;50.562;7.262;2023-04-20T02:41:34;6.60;99.90
25550;DHT22;13444;50.562;7.262;2023-04-20T02:44:00;6.70;99.90
25550;DHT22;13444;50.562;7.262;2023-04-20T02:46:25;6.70;99.90
25550;DHT22;13444;50.562;7.262;2023-04-20T02:48:51;6.70;99.90
25550;DHT22;13444;50.562;7.262;2023-04-20T02:51:16;6.70;99.90
25550;DHT22;13444;50.562;7.262;2023-04-20T02:53:42;6.70;99.90
25550;DHT22;13444;50.562;7.262;2023-04-20T02:56:07;6.80;99.90
25550;DHT22;13444;50.562;7.262;2023-04-20T02:58:33;6.90;99.90
25550;DHT22;13444;50.562;7.262;2023-04-20T03:00:59;6.90;99.90
25550;DHT22;13444;50.562;7.262;2023-04-20T03:03:26;7.00;99.90
25550;DHT22;13444;50.562;7.262;2023-04-20T03:05:51;7.00;99.90
25550;DHT22;13444;50.562;7.262;2023-04-20T03:08:17;7.00;99.90
25550;DHT22;13444;50.562;7.262;2023-04-20T03:10:42;7.00;99.90
25550;DHT22;13444;50.562;7.262;2023-04-20T03:13:08;7.10;99.90
25550;DHT22;13444;50.562;7.262;2023-04-20T03:15:34;7.10;99.90
25550;DHT22;13444;50.562;7.262;2023-04-20T03:18:00;7.10;99.90
25550;DHT22;13444;50.562;7.262;2023-04-20T03:20:25;7.10;99.90
25550;DHT22;13444;50.562;7.262;2023-04-20T03:22:51;7.10;99.90
25550;DHT22;13444;50.562;7.262;2023-04-20T03:25:17;7.10;99.90
25550;DHT22;13444;50.562;7.262;2023-04-20T03:27:44;7.10;99.90
25550;DHT22;13444;50.562;7.262;2023-04-20T03:30:11;7.10;99.90
25550;DHT22;13444;50.562;7.262;2023-04-20T03:32:36;7.20;99.90
25550;DHT22;13444;50.562;7.262;2023-04-20T03:35:05;7.20;99.90
25550;DHT22;13444;50.562;7.262;2023-04-20T03:37:31;7.10;99.90
25550;DHT22;13444;50.562;7.262;2023-04-20T03:39:57;7.10;99.90
25550;DHT22;13444;50.562;7.262;2023-04-20T03:42:22;7.20;99.90
25550;DHT22;13444;50.562;7.262;2023-04-20T03:44:48;7.10;99.90
25550;DHT22;13444;50.562;7.262;2023-04-20T03:47:13;7.20;99.90
25550;DHT22;13444;50.562;7.262;2023-04-20T03:49:39;7.20;99.90
25550;DHT22;13444;50.562;7.262;2023-04-20T03:52:04;7.20;99.90
25550;DHT22;13444;50.562;7.262;2023-04-20T03:54:30;7.10;99.90
25550;DHT22;13444;50.562;7.262;2023-04-20T03:56:56;7.10;99.90
25550;DHT22;13444;50.562;7.262;2023-04-20T03:59:23;7.10;99.90
25550;DHT22;13444;50.562;7.262;2023-04-20T04:01:48;7.10;99.90
25550;DHT22;13444;50.562;7.262;2023-04-20T04:04:14;7.10;99.90
25550;DHT22;13444;50.562;7.262;2023-04-20T04:06:40;7.10;99.90
25550;DHT22;13444;50.562;7.262;2023-04-20T04:09:05;7.10;99.90
25550;DHT22;13444;50.562;7.262;2023-04-20T04:11:31;7.20;99.90
25550;DHT22;13444;50.562;7.262;2023-04-20T04:13:57;7.20;99.90
25550;DHT22;13444;50.562;7.262;2023-04-20T04:16:23;7.20;99.90
25550;DHT22;13444;50.562;7.262;2023-04-20T04:18:49;7.20;99.90
25550;DHT22;13444;50.562;7.262;2023-04-20T04:21:15;7.20;99.90
25550;DHT22;13444;50.562;7.262;2023-04-20T04:23:40;7.20;99.90
25550;DHT22;13444;50.562;7.262;2023-04-20T04:26:09;7.20;99.90
25550;DHT22;13444;50.562;7.262;2023-04-20T04:28:36;7.20;99.90
25550;DHT22;13444;50.562;7.262;2023-04-20T04:31:01;7.20;99.90
25550;DHT22;13444;50.562;7.262;2023-04-20T04:33:30;7.20;99.90
25550;DHT22;13444;50.562;7.262;2023-04-20T04:35:57;7.10;99.90
25550;DHT22;13444;50.562;7.262;2023-04-20T04:38:23;7.20;99.90
25550;DHT22;13444;50.562;7.262;2023-04-20T04:40:48;7.10;99.90
25550;DHT22;13444;50.562;7.262;2023-04-20T04:43:14;7.10;99.90
25550;DHT22;13444;50.562;7.262;2023-04-20T04:45:40;7.10;99.90
25550;DHT22;13444;50.562;7.262;2023-04-20T04:48:06;7.10;99.90
25550;DHT22;13444;50.562;7.262;2023-04-20T04:50:34;7.10;99.90
25550;DHT22;13444;50.562;7.262;2023-04-20T04:52:59;7.10;99.90
25550;DHT22;13444;50.562;7.262;2023-04-20T04:55:25;7.10;99.90
25550;DHT22;13444;50.562;7.262;2023-04-20T04:57:50;7.10;99.90
25550;DHT22;13444;50.562;7.262;2023-04-20T05:00:16;7.00;99.90
25550;DHT22;13444;50.562;7.262;2023-04-20T05:02:42;7.10;99.90
25550;DHT22;13444;50.562;7.262;2023-04-20T05:05:08;7.10;99.90
25550;DHT22;13444;50.562;7.262;2023-04-20T05:07:34;7.10;99.90
25550;DHT22;13444;50.562;7.262;2023-04-20T05:09:59;7.00;99.90
25550;DHT22;13444;50.562;7.262;2023-04-20T05:12:25;7.00;99.90
25550;DHT22;13444;50.562;7.262;2023-04-20T05:14:51;7.00;99.90
25550;DHT22;13444;50.562;7.262;2023-04-20T05:17:20;7.00;99.90
25550;DHT22;13444;50.562;7.262;2023-04-20T05:19:46;7.00;99.90
25550;DHT22;13444;50.562;7.262;2023-04-20T05:22:11;7.00;99.90
25550;DHT22;13444;50.562;7.262;2023-04-20T05:24:37;7.00;99.90
25550;DHT22;13444;50.562;7.262;2023-04-20T05:27:02;7.00;99.90
25550;DHT22;13444;50.562;7.262;2023-04-20T05:29:28;7.00;99.90
25550;DHT22;13444;50.562;7.262;2023-04-20T05:31:54;7.00;99.90
25550;DHT22;13444;50.562;7.262;2023-04-20T05:34:19;7.00;99.90
25550;DHT22;13444;50.562;7.262;2023-04-20T05:36:45;7.00;99.90
25550;DHT22;13444;50.562;7.262;2023-04-20T05:39:11;7.00;99.90
25550;DHT22;13444;50.562;7.262;2023-04-20T05:41:37;7.10;99.90
25550;DHT22;13444;50.562;7.262;2023-04-20T05:44:03;7.10;99.90
25550;DHT22;13444;50.562;7.262;2023-04-20T05:46:28;7.10;99.90
25550;DHT22;13444;50.562;7.262;2023-04-20T05:48:54;7.20;99.90
25550;DHT22;13444;50.562;7.262;2023-04-20T05:51:20;7.20;99.90
25550;DHT22;13444;50.562;7.262;2023-04-20T05:53:46;7.20;99.90
25550;DHT22;13444;50.562;7.262;2023-04-20T05:56:12;7.30;99.90
25550;DHT22;13444;50.562;7.262;2023-04-20T05:58:39;7.30;99.90
25550;DHT22;13444;50.562;7.262;2023-04-20T06:01:05;7.20;99.90
25550;DHT22;13444;50.562;7.262;2023-04-20T06:03:31;7.20;99.90
25550;DHT22;13444;50.562;7.262;2023-04-20T06:05:57;7.20;99.90
25550;DHT22;13444;50.562;7.262;2023-04-20T06:08:22;7.20;99.90
25550;DHT22;13444;50.562;7.262;2023-04-20T06:10:52;7.20;99.90
25550;DHT22;13444;50.562;7.262;2023-04-20T06:13:18;7.10;99.90
25550;DHT22;13444;50.562;7.262;2023-04-20T06:15:43;7.00;99.90
25550;DHT22;13444;50.562;7.262;2023-04-20T06:18:09;7.00;99.90
25550;DHT22;13444;50.562;7.262;2023-04-20T06:20:34;7.00;99.90
25550;DHT22;13444;50.562;7.262;2023-04-20T06:23:00;7.10;99.90
25550;DHT22;13444;50.562;7.262;2023-04-20T06:25:25;7.10;99.90
25550;DHT22;13444;50.562;7.262;2023-04-20T06:27:51;7.10;99.90
25550;DHT22;13444;50.562;7.262;2023-04-20T06:30:19;7.10;99.90
25550;DHT22;13444;50.562;7.262;2023-04-20T06:32:44;7.10;99.90
25550;DHT22;13444;50.562;7.262;2023-04-20T06:35:10;7.10;99.90
25550;DHT22;13444;50.562;7.262;2023-04-20T06:37:36;7.20;99.90
25550;DHT22;13444;50.562;7.262;2023-04-20T06:40:02;7.20;99.90
25550;DHT22;13444;50.562;7.262;2023-04-20T06:42:32;7.20;99.90
25550;DHT22;13444;50.562;7.262;2023-04-20T06:44:58;7.20;99.90
25550;DHT22;13444;50.562;7.262;2023-04-20T06:47:23;7.30;99.90
25550;DHT22;13444;50.562;7.262;2023-04-20T06:49:59;7.40;99.90
25550;DHT22;13444;50.562;7.262;2023-04-20T06:52:25;7.40;99.90
25550;DHT22;13444;50.562;7.262;2023-04-20T06:54:50;7.40;99.90
25550;DHT22;13444;50.562;7.262;2023-04-20T06:57:16;7.40;99.90
25550;DHT22;13444;50.562;7.262;2023-04-20T06:59:42;7.30;99.90
25550;DHT22;13444;50.562;7.262;2023-04-20T07:02:07;7.30;99.90
25550;DHT22;13444;50.562;7.262;2023-04-20T07:04:33;7.30;99.90
25550;DHT22;13444;50.562;7.262;2023-04-20T07:06:58;7.40;99.90
25550;DHT22;13444;50.562;7.262;2023-04-20T07:09:24;7.50;99.90
25550;DHT22;13444;50.562;7.262;2023-04-20T07:11:49;7.40;99.90
25550;DHT22;13444;50.562;7.262;2023-04-20T07:14:15;7.50;99.90
25550;DHT22;13444;50.562;7.262;2023-04-20T07:16:40;7.60;99.90
25550;DHT22;13444;50.562;7.262;2023-04-20T07:19:06;7.60;99.90
25550;DHT22;13444;50.562;7.262;2023-04-20T07:21:31;7.70;99.90
25550;DHT22;13444;50.562;7.262;2023-04-20T07:23:57;7.70;99.90
25550;DHT22;13444;50.562;7.262;2023-04-20T07:26:24;7.70;99.90
25550;DHT22;13444;50.562;7.262;2023-04-20T07:28:50;7.70;99.90
25550;DHT22;13444;50.562;7.262;2023-04-20T07:31:16;7.60;99.90
25550;DHT22;13444;50.562;7.262;2023-04-20T07:33:42;7.60;99.90
25550;DHT22;13444;50.562;7.262;2023-04-20T07:36:08;7.60;99.90
25550;DHT22;13444;50.562;7.262;2023-04-20T07:38:33;7.50;99.90
25550;DHT22;13444;50.562;7.262;2023-04-20T07:40:59;7.50;99.90
25550;DHT22;13444;50.562;7.262;2023-04-20T07:43:25;7.50;99.90
25550;DHT22;13444;50.562;7.262;2023-04-20T07:45:50;7.60;99.90
25550;DHT22;13444;50.562;7.262;2023-04-20T07:48:16;7.60;99.90
25550;DHT22;13444;50.562;7.262;2023-04-20T07:50:42;7.60;99.90
25550;DHT22;13444;50.562;7.262;2023-04-20T07:53:07;7.60;99.90
25550;DHT22;13444;50.562;7.262;2023-04-20T07:55:33;7.60;99.90
25550;DHT22;13444;50.562;7.262;2023-04-20T07:57:59;7.70;99.90
25550;DHT22;13444;50.562;7.262;2023-04-20T08:00:25;7.70;99.90
25550;DHT22;13444;50.562;7.262;2023-04-20T08:02:51;7.80;99.90
25550;DHT22;13444;50.562;7.262;2023-04-20T08:05:17;7.80;99.90
25550;DHT22;13444;50.562;7.262;2023-04-20T08:07:42;7.90;99.90
25550;DHT22;13444;50.562;7.262;2023-04-20T08:10:08;7.80;99.90
25550;DHT22;13444;50.562;7.262;2023-04-20T08:12:34;7.80;99.90
25550;DHT22;13444;50.562;7.262;2023-04-20T08:15:00;7.80;99.90
25550;DHT22;13444;50.562;7.262;2023-04-20T08:17:29;7.80;99.90
25550;DHT22;13444;50.562;7.262;2023-04-20T08:19:54;7.90;99.90
25550;DHT22;13444;50.562;7.262;2023-04-20T08:22:20;8.00;99.90
25550;DHT22;13444;50.562;7.262;2023-04-20T08:24:45;8.00;99.90
25550;DHT22;13444;50.562;7.262;2023-04-20T08:27:11;8.10;99.90
25550;DHT22;13444;50.562;7.262;2023-04-20T08:29:38;8.10;99.90
25550;DHT22;13444;50.562;7.262;2023-04-20T08:32:03;8.30;99.90
25550;DHT22;13444;50.562;7.262;2023-04-20T08:34:29;8.40;99.90
25550;DHT22;13444;50.562;7.262;2023-04-20T08:36:55;8.50;99.90
25550;DHT22;13444;50.562;7.262;2023-04-20T08:39:21;8.60;99.90
25550;DHT22;13444;50.562;7.262;2023-04-20T08:41:49;8.60;99.90
25550;DHT22;13444;50.562;7.262;2023-04-20T08:44:18;8.60;99.90
25550;DHT22;13444;50.562;7.262;2023-04-20T08:46:46;8.40;99.90
25550;DHT22;13444;50.562;7.262;2023-04-20T08:49:14;8.30;99.90
25550;DHT22;13444;50.562;7.262;2023-04-20T08:51:41;8.30;99.90
25550;DHT22;13444;50.562;7.262;2023-04-20T08:54:06;8.30;99.90
25550;DHT22;13444;50.562;7.262;2023-04-20T08:56:37;8.20;99.90
25550;DHT22;13444;50.562;7.262;2023-04-20T08:59:03;8.20;99.90
25550;DHT22;13444;50.562;7.262;2023-04-20T09:01:30;8.10;99.90
25550;DHT22;13444;50.562;7.262;2023-04-20T09:03:55;8.10;99.90
25550;DHT22;13444;50.562;7.262;2023-04-20T09:06:21;8.20;99.90
25550;DHT22;13444;50.562;7.262;2023-04-20T09:08:47;8.20;99.90
25550;DHT22;13444;50.562;7.262;2023-04-20T09:11:26;8.30;99.90
25550;DHT22;13444;50.562;7.262;2023-04-20T09:14:03;8.20;99.90
25550;DHT22;13444;50.562;7.262;2023-04-20T09:16:31;8.20;99.90
25550;DHT22;13444;50.562;7.262;2023-04-20T09:18:57;7.90;99.90
25550;DHT22;13444;50.562;7.262;2023-04-20T09:21:24;7.60;99.90
25550;DHT22;13444;50.562;7.262;2023-04-20T09:23:59;7.30;99.90
25550;DHT22;13444;50.562;7.262;2023-04-20T09:26:25;6.90;99.90
25550;DHT22;13444;50.562;7.262;2023-04-20T09:28:51;6.90;99.90
25550;DHT22;13444;50.562;7.262;2023-04-20T09:31:20;6.90;99.90
25550;DHT22;13444;50.562;7.262;2023-04-20T09:34:00;6.90;99.90
25550;DHT22;13444;50.562;7.262;2023-04-20T09:36:42;6.90;99.90
25550;DHT22;13444;50.562;7.262;2023-04-20T09:39:09;7.00;99.90
25550;DHT22;13444;50.562;7.262;2023-04-20T09:41:37;7.10;99.90
25550;DHT22;13444;50.562;7.262;2023-04-20T09:44:03;7.30;99.90
25550;DHT22;13444;50.562;7.262;2023-04-20T09:46:30;7.40;99.90
25550;DHT22;13444;50.562;7.262;2023-04-20T09:49:02;7.70;99.90
25550;DHT22;13444;50.562;7.262;2023-04-20T09:51:28;7.90;99.90
25550;DHT22;13444;50.562;7.262;2023-04-20T09:53:58;8.10;99.90
25550;DHT22;13444;50.562;7.262;2023-04-20T09:56:24;8.30;99.90
25550;DHT22;13444;50.562;7.262;2023-04-20T09:58:51;8.40;99.90
25550;DHT22;13444;50.562;7.262;2023-04-20T10:01:17;8.50;99.90
25550;DHT22;13444;50.562;7.262;2023-04-20T10:03:43;8.70;99.90
25550;DHT22;13444;50.562;7.262;2023-04-20T10:06:22;8.90;99.90
25550;DHT22;13444;50.562;7.262;2023-04-20T10:08:49;9.30;99.90
25550;DHT22;13444;50.562;7.262;2023-04-20T10:14:00;9.30;99.90
25550;DHT22;13444;50.562;7.262;2023-04-20T10:16:26;9.30;99.90
25550;DHT22;13444;50.562;7.262;2023-04-20T10:18:57;9.30;99.90
25550;DHT22;13444;50.562;7.262;2023-04-20T10:21:23;9.10;99.90
25550;DHT22;13444;50.562;7.262;2023-04-20T10:23:50;9.10;99.90
25550;DHT22;13444;50.562;7.262;2023-04-20T10:26:16;9.00;99.90
25550;DHT22;13444;50.562;7.262;2023-04-20T10:28:42;8.90;99.90
25550;DHT22;13444;50.562;7.262;2023-04-20T10:31:10;8.90;99.90
25550;DHT22;13444;50.562;7.262;2023-04-20T10:33:53;8.90;99.90
25550;DHT22;13444;50.562;7.262;2023-04-20T10:36:32;9.00;99.90
25550;DHT22;13444;50.562;7.262;2023-04-20T10:38:59;8.90;99.90
25550;DHT22;13444;50.562;7.262;2023-04-20T10:41:29;9.10;99.90
25550;DHT22;13444;50.562;7.262;2023-04-20T10:44:06;9.40;99.90
25550;DHT22;13444;50.562;7.262;2023-04-20T10:46:32;9.40;99.90
25550;DHT22;13444;50.562;7.262;2023-04-20T10:48:59;9.50;99.90
25550;DHT22;13444;50.562;7.262;2023-04-20T10:51:28;9.50;99.90
25550;DHT22;13444;50.562;7.262;2023-04-20T10:54:05;9.40;99.90
25550;DHT22;13444;50.562;7.262;2023-04-20T10:56:42;9.50;99.90
25550;DHT22;13444;50.562;7.262;2023-04-20T10:59:09;9.50;99.90
25550;DHT22;13444;50.562;7.262;2023-04-20T11:01:35;9.60;99.90
25550;DHT22;13444;50.562;7.262;2023-04-20T11:04:01;9.60;99.90
25550;DHT22;13444;50.562;7.262;2023-04-20T11:06:26;9.50;99.90
25550;DHT22;13444;50.562;7.262;2023-04-20T11:08:52;9.40;99.90
25550;DHT22;13444;50.562;7.262;2023-04-20T11:11:23;9.40;99.90
25550;DHT22;13444;50.562;7.262;2023-04-20T11:13:50;9.30;99.90
25550;DHT22;13444;50.562;7.262;2023-04-20T11:16:17;9.30;99.90
25550;DHT22;13444;50.562;7.262;2023-04-20T11:18:53;9.30;99.90
25550;DHT22;13444;50.562;7.262;2023-04-20T11:21:20;9.40;99.90
25550;DHT22;13444;50.562;7.262;2023-04-20T11:23:46;9.40;99.90
25550;DHT22;13444;50.562;7.262;2023-04-20T11:26:12;9.50;99.90
25550;DHT22;13444;50.562;7.262;2023-04-20T11:28:37;9.60;99.90
25550;DHT22;13444;50.562;7.262;2023-04-20T11:31:03;9.60;99.90
25550;DHT22;13444;50.562;7.262;2023-04-20T11:33:30;9.60;99.90
25550;DHT22;13444;50.562;7.262;2023-04-20T11:35:56;9.70;99.90
25550;DHT22;13444;50.562;7.262;2023-04-20T11:38:33;9.80;99.90
25550;DHT22;13444;50.562;7.262;2023-04-20T11:40:59;9.90;99.90
25550;DHT22;13444;50.562;7.262;2023-04-20T11:43:32;9.90;99.90
25550;DHT22;13444;50.562;7.262;2023-04-20T11:45:58;9.90;99.90
25550;DHT22;13444;50.562;7.262;2023-04-20T11:48:25;10.10;99.90
25550;DHT22;13444;50.562;7.262;2023-04-20T11:50:51;10.10;99.90
25550;DHT22;13444;50.562;7.262;2023-04-20T11:53:17;10.20;99.90
25550;DHT22;13444;50.562;7.262;2023-04-20T11:55:43;10.30;99.90
25550;DHT22;13444;50.562;7.262;2023-04-20T11:58:08;10.50;99.90
25550;DHT22;13444;50.562;7.262;2023-04-20T12:00:34;10.70;99.90
25550;DHT22;13444;50.562;7.262;2023-04-20T12:02:59;11.10;99.90
25550;DHT22;13444;50.562;7.262;2023-04-20T12:05:27;11.30;99.90
25550;DHT22;13444;50.562;7.262;2023-04-20T12:07:52;11.50;99.90
25550;DHT22;13444;50.562;7.262;2023-04-20T12:10:18;11.80;99.90
25550;DHT22;13444;50.562;7.262;2023-04-20T12:12:43;12.10;99.90
25550;DHT22;13444;50.562;7.262;2023-04-20T12:15:09;12.30;99.90
25550;DHT22;13444;50.562;7.262;2023-04-20T12:17:34;12.50;99.90
25550;DHT22;13444;50.562;7.262;2023-04-20T12:20:00;12.60;99.90
25550;DHT22;13444;50.562;7.262;2023-04-20T12:22:25;12.80;99.90
25550;DHT22;13444;50.562;7.262;2023-04-20T12:24:51;13.00;99.90
25550;DHT22;13444;50.562;7.262;2023-04-20T12:27:16;13.20;99.90
25550;DHT22;13444;50.562;7.262;2023-04-20T12:29:42;13.30;99.90
25550;DHT22;13444;50.562;7.262;2023-04-20T12:32:07;13.40;99.90
25550;DHT22;13444;50.562;7.262;2023-04-20T12:34:33;13.30;99.90
25550;DHT22;13444;50.562;7.262;2023-04-20T12:36:58;13.10;99.90
25550;DHT22;13444;50.562;7.262;2023-04-20T12:39:25;12.90;99.90
25550;DHT22;13444;50.562;7.262;2023-04-20T12:41:50;12.60;99.90
25550;DHT22;13444;50.562;7.262;2023-04-20T12:44:16;12.50;99.90
25550;DHT22;13444;50.562;7.262;2023-04-20T12:46:41;12.40;99.90
25550;DHT22;13444;50.562;7.262;2023-04-20T12:49:07;12.40;99.90
25550;DHT22;13444;50.562;7.262;2023-04-20T12:51:32;12.30;99.90
25550;DHT22;13444;50.562;7.262;2023-04-20T12:53:58;12.20;99.90
25550;DHT22;13444;50.562;7.262;2023-04-20T12:56:24;12.20;99.90
25550;DHT22;13444;50.562;7.262;2023-04-20T12:58:50;12.30;99.90
25550;DHT22;13444;50.562;7.262;2023-04-20T13:01:15;12.30;99.90
25550;DHT22;13444;50.562;7.262;2023-04-20T13:03:41;12.50;99.90
25550;DHT22;13444;50.562;7.262;2023-04-20T13:06:07;12.60;99.90
25550;DHT22;13444;50.562;7.262;2023-04-20T13:08:32;12.90;99.90
25550;DHT22;13444;50.562;7.262;2023-04-20T13:10:57;13.20;99.90
25550;DHT22;13444;50.562;7.262;2023-04-20T13:13:23;13.30;99.90
25550;DHT22;13444;50.562;7.262;2023-04-20T13:15:49;13.50;99.90
25550;DHT22;13444;50.562;7.262;2023-04-20T13:18:14;13.60;99.90
25550;DHT22;13444;50.562;7.262;2023-04-20T13:20:40;13.70;99.90
25550;DHT22;13444;50.562;7.262;2023-04-20T13:23:05;13.60;99.90
25550;DHT22;13444;50.562;7.262;2023-04-20T13:25:32;13.60;99.90
25550;DHT22;13444;50.562;7.262;2023-04-20T13:27:58;13.50;99.90
25550;DHT22;13444;50.562;7.262;2023-04-20T13:30:25;13.30;99.90
25550;DHT22;13444;50.562;7.262;2023-04-20T13:32:51;13.10;99.90
25550;DHT22;13444;50.562;7.262;2023-04-20T13:35:17;13.00;99.90
25550;DHT22;13444;50.562;7.262;2023-04-20T13:37:43;12.90;99.90
25550;DHT22;13444;50.562;7.262;2023-04-20T13:40:10;12.80;99.90
25550;DHT22;13444;50.562;7.262;2023-04-20T13:42:36;12.80;99.90
25550;DHT22;13444;50.562;7.262;2023-04-20T13:45:02;12.80;99.90
25550;DHT22;13444;50.562;7.262;2023-04-20T13:47:28;12.90;99.90
25550;DHT22;13444;50.562;7.262;2023-04-20T13:49:57;12.90;99.90
25550;DHT22;13444;50.562;7.262;2023-04-20T13:52:22;12.90;99.90
25550;DHT22;13444;50.562;7.262;2023-04-20T13:54:48;12.90;99.90
25550;DHT22;13444;50.562;7.262;2023-04-20T13:57:13;13.00;99.90
25550;DHT22;13444;50.562;7.262;2023-04-20T13:59:39;13.00;99.90
25550;DHT22;13444;50.562;7.262;2023-04-20T14:02:05;12.80;99.90
25550;DHT22;13444;50.562;7.262;2023-04-20T14:04:31;12.60;99.90
25550;DHT22;13444;50.562;7.262;2023-04-20T14:06:56;12.50;99.90
25550;DHT22;13444;50.562;7.262;2023-04-20T14:09:22;12.40;99.90
25550;DHT22;13444;50.562;7.262;2023-04-20T14:11:47;12.10;99.90
25550;DHT22;13444;50.562;7.262;2023-04-20T14:14:13;12.10;99.90
25550;DHT22;13444;50.562;7.262;2023-04-20T14:16:46;12.00;99.90
25550;DHT22;13444;50.562;7.262;2023-04-20T14:19:12;11.80;99.90
25550;DHT22;13444;50.562;7.262;2023-04-20T14:21:38;11.80;99.90
25550;DHT22;13444;50.562;7.262;2023-04-20T14:24:05;11.70;99.90
25550;DHT22;13444;50.562;7.262;2023-04-20T14:26:31;11.50;99.90
25550;DHT22;13444;50.562;7.262;2023-04-20T14:28:56;11.40;99.90
25550;DHT22;13444;50.562;7.262;2023-04-20T14:31:22;11.40;99.90
25550;DHT22;13444;50.562;7.262;2023-04-20T14:33:48;11.40;99.90
25550;DHT22;13444;50.562;7.262;2023-04-20T14:36:13;11.50;99.90
25550;DHT22;13444;50.562;7.262;2023-04-20T14:38:39;11.50;99.90
25550;DHT22;13444;50.562;7.262;2023-04-20T14:41:04;11.60;99.90
25550;DHT22;13444;50.562;7.262;2023-04-20T14:43:30;11.80;99.90
25550;DHT22;13444;50.562;7.262;2023-04-20T14:45:57;11.80;99.90
25550;DHT22;13444;50.562;7.262;2023-04-20T14:48:25;12.00;99.90
25550;DHT22;13444;50.562;7.262;2023-04-20T14:50:51;12.10;99.90
25550;DHT22;13444;50.562;7.262;2023-04-20T14:53:17;12.20;99.90
25550;DHT22;13444;50.562;7.262;2023-04-20T14:55:43;12.30;99.90
25550;DHT22;13444;50.562;7.262;2023-04-20T14:58:08;12.40;99.90
25550;DHT22;13444;50.562;7.262;2023-04-20T15:00:34;12.50;99.90
25550;DHT22;13444;50.562;7.262;2023-04-20T15:02:59;12.50;99.90
25550;DHT22;13444;50.562;7.262;2023-04-20T15:05:26;12.60;99.90
25550;DHT22;13444;50.562;7.262;2023-04-20T15:07:51;12.60;99.90
25550;DHT22;13444;50.562;7.262;2023-04-20T15:10:18;12.50;99.90
25550;DHT22;13444;50.562;7.262;2023-04-20T15:12:45;12.50;99.90
25550;DHT22;13444;50.562;7.262;2023-04-20T15:15:11;12.60;99.90
25550;DHT22;13444;50.562;7.262;2023-04-20T15:17:36;12.80;99.90
25550;DHT22;13444;50.562;7.262;2023-04-20T15:20:02;12.90;99.90
25550;DHT22;13444;50.562;7.262;2023-04-20T15:22:28;12.80;99.90
25550;DHT22;13444;50.562;7.262;2023-04-20T15:24:54;12.80;99.90
25550;DHT22;13444;50.562;7.262;2023-04-20T15:27:19;12.60;99.90
25550;DHT22;13444;50.562;7.262;2023-04-20T15:29:45;12.60;99.90
25550;DHT22;13444;50.562;7.262;2023-04-20T15:32:10;12.70;99.90
25550;DHT22;13444;50.562;7.262;2023-04-20T15:34:36;12.70;99.90
25550;DHT22;13444;50.562;7.262;2023-04-20T15:37:02;12.80;99.90
25550;DHT22;13444;50.562;7.262;2023-04-20T15:39:27;13.00;99.90